Time;durP1;ratioP1;P1;durP2;ratioP2;P2;SDS_P1;SDS_P2;PMS_P1;PMS_P2;Temp;Humidity;BMP_temperature;BMP_pressure;BME280_temperature;BME280_humidity;BME280_pressure;Samples;Min_cycle;Max_cycle;Signal;HPM_P1;HPM_P2
2021/12/22 00:06:51;;;;;;;19.30;13.27;;;;;;;;;;5020544;28;20222;-80
2021/12/22 00:30:29;;;;;;;17.97;13.63;;;;;;;;;;5015488;28;20206;-80
2021/12/22 00:33:12;;;;;;;19.47;14.03;;;;;;;;;;5019119;28;20288;-81
2021/12/22 00:48:23;;;;;;;18.87;13.17;;;;;;;;;;5011011;28;20210;-81
2021/12/22 00:51:02;;;;;;;17.80;12.43;;;;;;;;;;5017920;28;20241;-80
2021/12/22 01:05:28;;;;;;;19.17;13.37;;;;;;;;;;5022412;28;20218;-80
2021/12/22 01:26:14;;;;;;;20.00;13.37;;;;;;;;;;5007391;28;20218;-81
2021/12/22 01:29:23;;;;;;;;;;;;;;;;;;;;;
2021/12/22 01:32:24;;;;;;;17.97;13.17;;;;;;;;;;5011552;28;20222;-81
2021/12/22 01:35:20;;;;;;;19.37;12.83;;;;;;;;;;5018859;28;20230;-80
2021/12/22 01:44:13;;;;;;;16.40;12.13;;;;;;;;;;5006605;28;20259;-81
2021/12/22 01:50:10;;;;;;;20.33;13.67;;;;;;;;;;5017923;28;20232;-81
2021/12/22 01:52:45;;;;;;;17.93;13.67;;;;;;;;;;5013516;28;20221;-81
2021/12/22 01:55:35;;;;;;;19.17;13.27;;;;;;;;;;5015235;28;20300;-81
2021/12/22 01:58:18;;;;;;;21.43;13.43;;;;;;;;;;5018210;28;20212;-81
2021/12/22 02:00:52;;;;;;;18.87;13.80;;;;;;;;;;5014899;28;20293;-81
2021/12/22 02:03:29;;;;;;;21.10;13.60;;;;;;;;;;5031375;28;20264;-78
2021/12/22 02:05:58;;;;;;;17.63;12.43;;;;;;;;;;5020083;28;20217;-82
2021/12/22 02:08:33;;;;;;;18.23;13.00;;;;;;;;;;5009764;28;20272;-80
2021/12/22 02:11:40;;;;;;;18.63;12.43;;;;;;;;;;5008460;28;20206;-80
2021/12/22 02:17:21;;;;;;;19.03;12.93;;;;;;;;;;4947770;28;20210;-80
2021/12/22 02:20:10;;;;;;;17.03;12.43;;;;;;;;;;5023453;28;20210;-79
2021/12/22 02:29:03;;;;;;;17.00;11.97;;;;;;;;;;5003611;28;20269;-81
2021/12/22 02:31:51;;;;;;;18.77;13.20;;;;;;;;;;5028152;28;20317;-81
2021/12/22 02:34:46;;;;;;;18.50;12.53;;;;;;;;;;5037492;28;20244;-80
2021/12/22 02:45:42;;;;;;;16.30;12.53;;;;;;;;;;5044723;22;20312;-81
2021/12/22 02:48:19;;;;;;;19.27;13.20;;;;;;;;;;5017107;28;20201;-81
2021/12/22 02:51:00;;;;;;;19.20;13.10;;;;;;;;;;5036811;28;20292;-81
2021/12/22 02:53:40;;;;;;;20.00;13.67;;;;;;;;;;5030747;28;20234;-81
2021/12/22 02:56:33;;;;;;;19.67;12.97;;;;;;;;;;5015786;28;20203;-78
2021/12/22 03:07:40;;;;;;;19.13;13.03;;;;;;;;;;5009850;28;20206;-81
2021/12/22 03:10:17;;;;;;;18.27;13.03;;;;;;;;;;5008434;28;20210;-79
2021/12/22 03:13:01;;;;;;;18.63;13.23;;;;;;;;;;5016412;28;20290;-79
2021/12/22 03:15:34;;;;;;;19.83;14.43;;;;;;;;;;5010683;28;20206;-80
2021/12/22 03:18:10;;;;;;;19.57;14.53;;;;;;;;;;5016568;28;20206;-80
2021/12/22 03:20:40;;;;;;;19.77;13.27;;;;;;;;;;5016309;28;20206;-82
2021/12/22 03:23:20;;;;;;;20.83;13.73;;;;;;;;;;5017054;28;20218;-82
2021/12/22 03:25:52;;;;;;;17.40;13.17;;;;;;;;;;5017960;28;20206;-81
2021/12/22 03:28:24;;;;;;;21.17;14.47;;;;;;;;;;5016137;28;20221;-81
2021/12/22 03:31:04;;;;;;;19.03;13.77;;;;;;;;;;5016640;28;20214;-80
2021/12/22 03:33:38;;;;;;;19.90;14.03;;;;;;;;;;5010496;28;20233;-80
2021/12/22 03:36:17;;;;;;;18.07;12.70;;;;;;;;;;5011226;28;20204;-81
2021/12/22 03:41:34;;;;;;;25.03;14.63;;;;;;;;;;5014761;28;20202;-80
2021/12/22 03:44:14;;;;;;;21.33;16.50;;;;;;;;;;5016284;28;20241;-81
2021/12/22 03:46:52;;;;;;;21.13;15.53;;;;;;;;;;5010820;28;20214;-81
2021/12/22 03:49:28;;;;;;;21.27;14.93;;;;;;;;;;5007775;28;20202;-81
2021/12/22 03:51:56;;;;;;;20.37;14.03;;;;;;;;;;5015898;28;20313;-80
2021/12/22 03:54:23;;;;;;;19.63;14.87;;;;;;;;;;5016427;28;20226;-80
2021/12/22 03:56:58;;;;;;;19.37;14.43;;;;;;;;;;5016360;28;20226;-80
2021/12/22 03:59:39;;;;;;;23.73;15.27;;;;;;;;;;5016076;28;20205;-79
2021/12/22 04:02:31;;;;;;;21.60;15.60;;;;;;;;;;5015174;28;20207;-81
2021/12/22 04:05:01;;;;;;;18.93;15.87;;;;;;;;;;5011935;28;20227;-81
2021/12/22 04:07:35;;;;;;;21.13;14.90;;;;;;;;;;5016347;28;20217;-81
2021/12/22 04:10:19;;;;;;;18.67;14.37;;;;;;;;;;5018096;28;20229;-81
2021/12/22 04:12:55;;;;;;;21.37;14.00;;;;;;;;;;5015923;28;20222;-81
2021/12/22 04:15:34;;;;;;;18.57;14.13;;;;;;;;;;5016603;28;20230;-79
2021/12/22 04:21:29;;;;;;;20.23;13.60;;;;;;;;;;4999930;28;20285;-81
2021/12/22 04:23:59;;;;;;;18.73;13.43;;;;;;;;;;5010392;28;20237;-80
2021/12/22 04:26:55;;;;;;;17.57;13.63;;;;;;;;;;5016036;28;20198;-79
2021/12/22 04:29:30;;;;;;;16.10;13.80;;;;;;;;;;5016080;28;20257;-80
2021/12/22 04:32:25;;;;;;;21.33;14.70;;;;;;;;;;5008286;28;20222;-80
2021/12/22 04:35:05;;;;;;;21.30;13.40;;;;;;;;;;5012886;28;20223;-80
2021/12/22 04:37:35;;;;;;;19.63;14.20;;;;;;;;;;5016082;28;20205;-80
2021/12/22 04:40:21;;;;;;;19.97;14.80;;;;;;;;;;5016083;28;20218;-79
2021/12/22 04:48:37;;;;;;;17.50;12.90;;;;;;;;;;4955843;28;20208;-82
2021/12/22 05:06:40;;;;;;;22.97;14.07;;;;;;;;;;4943576;29;20244;-81
2021/12/22 05:09:16;;;;;;;19.37;13.77;;;;;;;;;;4952618;29;20267;-81
2021/12/22 05:12:12;;;;;;;21.63;15.37;;;;;;;;;;4947419;28;20360;-80
2021/12/22 05:48:53;;;;;;;22.40;15.27;;;;;;;;;;4731896;30;20239;-80
2021/12/22 05:51:53;;;;;;;18.13;13.33;;;;;;;;;;4734548;30;20296;-80
2021/12/22 05:57:53;;;;;;;21.70;14.60;;;;;;;;;;4653000;30;20232;-81
2021/12/22 06:00:52;;;;;;;21.93;14.50;;;;;;;;;;4672001;30;20365;-78
2021/12/22 06:22:37;;;;;;;19.87;14.53;;;;;;;;;;4829922;29;20205;-81
2021/12/22 06:31:47;;;;;;;22.93;15.63;;;;;;;;;;4879756;29;20214;-79
2021/12/22 07:05:31;;;;;;;28.40;16.47;;;;;;;;;;4978335;28;20250;-81
2021/12/22 07:20:40;;;;;;;23.90;16.03;;;;;;;;;;4860233;29;20244;-81
2021/12/22 07:23:26;;;;;;;23.07;15.47;;;;;;;;;;4897912;29;20206;-83
2021/12/22 07:35:23;;;;;;;25.77;15.70;;;;;;;;;;4778283;29;20806;-81
2021/12/22 07:38:23;;;;;;;23.40;15.93;;;;;;;;;;4821363;29;20293;-80
2021/12/22 07:50:15;;;;;;;24.20;16.77;;;;;;;;;;4786579;29;20205;-81
2021/12/22 07:53:12;;;;;;;25.50;17.17;;;;;;;;;;4862904;29;20243;-81
2021/12/22 07:55:47;;;;;;;23.60;17.63;;;;;;;;;;4861179;29;20307;-82
2021/12/22 08:07:56;;;;;;;26.17;17.80;;;;;;;;;;4837525;29;20216;-82
2021/12/22 08:13:53;;;;;;;29.07;17.93;;;;;;;;;;4863043;29;20259;-81
2021/12/22 08:19:51;;;;;;;27.67;18.17;;;;;;;;;;4818525;29;20219;-81
2021/12/22 08:22:28;;;;;;;28.97;18.27;;;;;;;;;;4880554;29;20275;-80
2021/12/22 08:25:20;;;;;;;29.67;18.80;;;;;;;;;;4909668;29;20338;-81
2021/12/22 08:46:25;;;;;;;24.30;17.07;;;;;;;;;;4845090;29;20216;-84
2021/12/22 09:06:39;;;;;;;28.67;17.43;;;;;;;;;;4916181;29;20208;-84
2021/12/22 09:09:20;;;;;;;26.03;17.27;;;;;;;;;;4917335;29;20206;-82
2021/12/22 09:12:23;;;;;;;29.40;17.50;;;;;;;;;;4916365;29;20214;-80
2021/12/22 09:14:50;;;;;;;26.33;18.07;;;;;;;;;;4894892;29;20723;-83
2021/12/22 09:17:31;;;;;;;27.10;17.83;;;;;;;;;;4933936;28;20207;-82
2021/12/22 09:20:28;;;;;;;27.83;18.70;;;;;;;;;;4977395;28;20204;-85
2021/12/22 09:23:12;;;;;;;29.00;18.40;;;;;;;;;;4975222;28;20200;-82
2021/12/22 09:32:21;;;;;;;25.37;17.00;;;;;;;;;;4955628;29;20195;-83
2021/12/22 09:35:27;;;;;;;25.43;18.00;;;;;;;;;;4955378;28;20236;-88
2021/12/22 09:47:51;;;;;;;25.17;16.87;;;;;;;;;;4858712;29;20210;-86
2021/12/22 09:50:38;;;;;;;22.33;16.20;;;;;;;;;;4899101;29;20210;-81
2021/12/22 09:54:04;;;;;;;;;;;;;;;;;;;;;
2021/12/22 09:56:33;;;;;;;24.20;16.27;;;;;;;;;;4879961;29;20215;-84
2021/12/22 09:59:01;;;;;;;24.17;15.83;;;;;;;;;;4879772;29;20207;-85
2021/12/22 10:01:28;;;;;;;24.90;16.87;;;;;;;;;;4892174;29;20215;-84
2021/12/22 10:04:18;;;;;;;22.80;16.27;;;;;;;;;;4900432;29;20270;-85
2021/12/22 10:06:46;;;;;;;20.77;14.77;;;;;;;;;;4899714;29;20210;-84
2021/12/22 10:09:15;;;;;;;22.33;14.73;;;;;;;;;;4929395;29;20301;-83
2021/12/22 10:11:44;;;;;;;23.63;15.77;;;;;;;;;;4935630;29;20735;-84
2021/12/22 10:14:21;;;;;;;20.70;14.83;;;;;;;;;;4934154;29;20233;-83
2021/12/22 10:16:50;;;;;;;23.60;15.13;;;;;;;;;;4949985;28;20208;-85
2021/12/22 10:19:20;;;;;;;21.90;15.53;;;;;;;;;;4977192;28;20266;-85
2021/12/22 10:21:57;;;;;;;20.53;14.43;;;;;;;;;;4978540;28;20247;-83
2021/12/22 10:24:38;;;;;;;23.00;14.53;;;;;;;;;;4979873;28;20323;-83
2021/12/22 10:27:06;;;;;;;19.40;14.10;;;;;;;;;;4982948;28;20270;-85
2021/12/22 10:29:34;;;;;;;19.37;14.00;;;;;;;;;;4989738;28;20227;-85
2021/12/22 10:32:09;;;;;;;19.70;15.00;;;;;;;;;;4987758;28;20192;-87
2021/12/22 10:37:37;;;;;;;20.00;14.50;;;;;;;;;;5106693;27;20553;-86
2021/12/22 10:40:19;;;;;;;20.27;14.20;;;;;;;;;;5086469;28;20254;-84
2021/12/22 10:42:48;;;;;;;23.20;13.83;;;;;;;;;;5073881;28;20200;-85
2021/12/22 10:45:16;;;;;;;19.77;13.57;;;;;;;;;;5069702;28;20234;-84
2021/12/22 10:50:32;;;;;;;19.13;14.03;;;;;;;;;;5072598;28;20201;-85
2021/12/22 10:53:01;;;;;;;19.80;14.47;;;;;;;;;;5073594;28;20223;-86
2021/12/22 10:55:37;;;;;;;19.03;13.60;;;;;;;;;;5067414;28;20234;-84
2021/12/22 10:58:27;;;;;;;17.50;14.23;;;;;;;;;;5067277;28;20199;-88
2021/12/22 11:01:21;;;;;;;19.77;13.83;;;;;;;;;;5072299;28;20201;-86
2021/12/22 11:03:52;;;;;;;21.77;15.97;;;;;;;;;;5047663;28;20246;-86
2021/12/22 11:06:23;;;;;;;19.80;15.07;;;;;;;;;;5073166;28;20201;-86
2021/12/22 11:09:00;;;;;;;20.50;14.80;;;;;;;;;;5069172;28;20201;-84
2021/12/22 11:11:32;;;;;;;18.63;14.30;;;;;;;;;;5073476;28;20208;-85
2021/12/22 11:14:04;;;;;;;19.60;13.97;;;;;;;;;;5077331;28;20225;-86
2021/12/22 11:16:32;;;;;;;19.07;13.97;;;;;;;;;;5081059;28;20201;-88
2021/12/22 11:22:05;;;;;;;20.83;14.90;;;;;;;;;;5069162;28;20208;-84
2021/12/22 11:24:35;;;;;;;18.90;14.47;;;;;;;;;;5078527;28;20220;-83
2021/12/22 11:30:05;;;;;;;17.30;14.27;;;;;;;;;;5063766;28;20222;-86
2021/12/22 11:35:23;;;;;;;19.67;14.47;;;;;;;;;;5306715;22;20251;-86
2021/12/22 11:37:59;;;;;;;21.17;16.40;;;;;;;;;;5093433;28;20205;-85
2021/12/22 11:40:28;;;;;;;22.20;15.43;;;;;;;;;;5091413;28;20295;-83
2021/12/22 11:42:56;;;;;;;19.33;14.70;;;;;;;;;;5089153;28;20208;-86
2021/12/22 11:45:25;;;;;;;21.30;15.03;;;;;;;;;;5092205;28;20228;-84
2021/12/22 11:48:02;;;;;;;21.07;14.20;;;;;;;;;;5086718;28;20217;-86
2021/12/22 11:50:30;;;;;;;19.97;14.90;;;;;;;;;;5077385;28;20206;-82
2021/12/22 11:52:59;;;;;;;19.60;14.80;;;;;;;;;;5080506;28;20205;-84
2021/12/22 11:55:41;;;;;;;18.30;14.47;;;;;;;;;;5100065;22;20235;-87
2021/12/22 11:58:32;;;;;;;21.37;14.77;;;;;;;;;;5057343;28;20292;-88
2021/12/22 12:01:05;;;;;;;18.30;14.33;;;;;;;;;;5045018;28;20210;-88
2021/12/22 12:03:36;;;;;;;19.20;14.27;;;;;;;;;;5056088;28;20255;-90
2021/12/22 12:06:08;;;;;;;20.87;15.17;;;;;;;;;;5045978;28;20220;-90
2021/12/22 12:11:55;;;;;;;17.73;13.83;;;;;;;;;;5032165;28;20198;-91
2021/12/22 12:23:43;;;;;;;20.33;14.23;;;;;;;;;;5071083;28;20328;-85
2021/12/22 12:27:06;;;;;;;19.60;15.13;;;;;;;;;;5090012;22;20232;-85
2021/12/22 12:36:08;;;;;;;22.03;14.77;;;;;;;;;;4999600;28;20221;-86
2021/12/22 12:38:59;;;;;;;19.37;14.90;;;;;;;;;;5043865;28;20208;-84
2021/12/22 12:41:34;;;;;;;19.27;14.80;;;;;;;;;;5091568;28;20228;-84
2021/12/22 12:44:03;;;;;;;22.80;15.43;;;;;;;;;;5095959;28;20200;-85
2021/12/22 12:49:56;;;;;;;18.67;14.23;;;;;;;;;;4974356;28;20207;-87
2021/12/22 12:52:54;;;;;;;20.10;14.70;;;;;;;;;;4975242;28;20210;-91
2021/12/22 13:07:30;;;;;;;20.70;14.40;;;;;;;;;;4936697;28;20336;-86
2021/12/22 13:10:02;;;;;;;18.27;14.30;;;;;;;;;;4975840;28;20224;-86
2021/12/22 13:21:56;;;;;;;20.20;14.50;;;;;;;;;;4793024;29;20209;-86
2021/12/22 13:42:42;;;;;;;19.00;14.80;;;;;;;;;;5076197;28;20185;-85
2021/12/22 13:45:52;;;;;;;20.47;15.47;;;;;;;;;;5068186;28;20231;-85
2021/12/22 14:02:43;;;;;;;19.13;14.50;;;;;;;;;;5048322;28;20222;-87
2021/12/22 14:05:14;;;;;;;18.27;14.17;;;;;;;;;;5048830;28;20241;-88
2021/12/22 14:07:42;;;;;;;17.37;13.70;;;;;;;;;;5053573;28;20205;-87
2021/12/22 14:10:13;;;;;;;18.73;14.33;;;;;;;;;;5053327;28;20213;-85
2021/12/22 14:12:44;;;;;;;15.73;13.17;;;;;;;;;;5053704;28;20269;-86
2021/12/22 14:15:12;;;;;;;18.43;13.37;;;;;;;;;;5049482;28;20217;-88
2021/12/22 14:17:51;;;;;;;17.50;12.93;;;;;;;;;;5041588;28;20217;-85
2021/12/22 14:20:33;;;;;;;17.20;12.73;;;;;;;;;;5053367;28;20272;-88
2021/12/22 14:23:02;;;;;;;16.57;12.47;;;;;;;;;;5052143;28;20212;-85
2021/12/22 14:25:32;;;;;;;15.97;12.37;;;;;;;;;;5044487;28;20217;-84
2021/12/22 14:28:04;;;;;;;17.00;13.37;;;;;;;;;;5044284;28;20219;-83
2021/12/22 14:30:32;;;;;;;16.57;12.87;;;;;;;;;;5048836;28;20280;-83
2021/12/22 14:33:00;;;;;;;16.73;13.87;;;;;;;;;;5048847;28;20216;-85
2021/12/22 14:35:48;;;;;;;22.07;16.07;;;;;;;;;;5055714;28;20232;-84
2021/12/22 14:38:33;;;;;;;26.60;16.30;;;;;;;;;;5040117;28;20216;-83
2021/12/22 14:41:18;;;;;;;19.77;13.47;;;;;;;;;;5053360;28;20201;-86
2021/12/22 14:43:51;;;;;;;19.20;14.57;;;;;;;;;;5048766;28;20197;-88
2021/12/22 14:46:31;;;;;;;18.13;13.73;;;;;;;;;;5050725;28;20286;-87
2021/12/22 14:49:00;;;;;;;18.20;13.13;;;;;;;;;;5044771;28;20198;-87
2021/12/22 14:51:29;;;;;;;19.23;13.53;;;;;;;;;;5049642;28;20201;-87
2021/12/22 14:53:59;;;;;;;22.47;16.03;;;;;;;;;;5048344;28;20217;-86
2021/12/22 14:56:27;;;;;;;19.57;15.07;;;;;;;;;;5052903;28;20232;-86
2021/12/22 14:58:57;;;;;;;20.00;14.57;;;;;;;;;;5051618;28;20201;-87
2021/12/22 15:01:26;;;;;;;19.53;14.23;;;;;;;;;;5050889;28;20296;-87
2021/12/22 15:03:56;;;;;;;19.53;14.07;;;;;;;;;;5053287;28;20215;-89
2021/12/22 15:06:24;;;;;;;21.23;15.80;;;;;;;;;;5052551;28;20225;-88
2021/12/22 15:08:52;;;;;;;22.73;16.90;;;;;;;;;;5052375;28;20205;-88
2021/12/22 15:11:20;;;;;;;26.40;18.30;;;;;;;;;;5049465;28;20198;-88
2021/12/22 15:13:54;;;;;;;19.63;15.47;;;;;;;;;;5049739;28;20229;-90
2021/12/22 15:16:50;;;;;;;18.43;14.43;;;;;;;;;;5049737;28;20323;-87
2021/12/22 15:19:20;;;;;;;23.30;16.90;;;;;;;;;;5048538;28;20209;-88
2021/12/22 15:21:49;;;;;;;21.27;14.93;;;;;;;;;;5051412;28;20201;-86
2021/12/22 15:24:17;;;;;;;22.43;15.67;;;;;;;;;;5048382;28;20210;-86
2021/12/22 15:26:44;;;;;;;20.30;14.33;;;;;;;;;;5052864;28;20244;-86
2021/12/22 15:29:14;;;;;;;24.93;18.27;;;;;;;;;;5051690;28;20216;-86
2021/12/22 15:41:13;;;;;;;23.33;16.30;;;;;;;;;;5045667;28;20197;-88
2021/12/22 15:47:30;;;;;;;22.10;15.73;;;;;;;;;;5042833;28;20217;-88
2021/12/22 15:50:13;;;;;;;21.73;14.33;;;;;;;;;;5054056;28;20274;-87
2021/12/22 15:52:59;;;;;;;23.10;16.17;;;;;;;;;;5055003;28;20201;-88
2021/12/22 15:56:02;;;;;;;21.00;15.53;;;;;;;;;;5052633;28;20307;-88
2021/12/22 16:04:33;;;;;;;24.73;16.00;;;;;;;;;;4924313;29;20216;-88
2021/12/22 16:07:17;;;;;;;19.60;15.00;;;;;;;;;;4947792;29;20232;-87
2021/12/22 16:12:44;;;;;;;22.27;16.10;;;;;;;;;;4945965;29;20411;-88
2021/12/22 16:15:18;;;;;;;23.37;15.60;;;;;;;;;;4948725;29;20232;-87
2021/12/22 16:20:54;;;;;;;25.73;15.80;;;;;;;;;;4943690;29;20207;-86
2021/12/22 16:23:29;;;;;;;24.57;16.10;;;;;;;;;;4962050;29;20389;-86
2021/12/22 16:26:02;;;;;;;22.17;15.97;;;;;;;;;;4957488;29;20259;-87
2021/12/22 16:28:35;;;;;;;23.13;16.67;;;;;;;;;;4986454;28;20214;-85
2021/12/22 16:31:13;;;;;;;21.50;15.40;;;;;;;;;;5050490;28;20210;-93
2021/12/22 16:33:48;;;;;;;24.70;15.47;;;;;;;;;;5047102;28;20199;-85
2021/12/22 16:39:49;;;;;;;22.77;15.47;;;;;;;;;;4979540;28;20235;-90
2021/12/22 16:42:40;;;;;;;32.00;18.80;;;;;;;;;;4918626;29;20218;-89
2021/12/22 16:45:21;;;;;;;33.83;19.67;;;;;;;;;;4909090;29;20253;-86
2021/12/22 16:47:53;;;;;;;31.13;20.33;;;;;;;;;;4964321;28;20347;-88
2021/12/22 16:53:49;;;;;;;;;;;;;;;;;;;;;
2021/12/22 16:59:37;;;;;;;25.37;17.13;;;;;;;;;;4902727;29;20202;-84
2021/12/22 17:02:08;;;;;;;24.20;15.90;;;;;;;;;;4873202;29;20217;-85
2021/12/22 17:05:01;;;;;;;24.53;16.77;;;;;;;;;;4900504;29;20295;-83
2021/12/22 17:08:03;;;;;;;25.47;17.53;;;;;;;;;;4902737;29;20321;-87
2021/12/22 17:10:41;;;;;;;23.73;17.17;;;;;;;;;;4887343;29;20278;-84
2021/12/22 17:13:10;;;;;;;26.73;17.70;;;;;;;;;;4951962;28;20237;-87
2021/12/22 17:15:43;;;;;;;24.27;17.60;;;;;;;;;;4965183;28;20224;-85
2021/12/22 17:18:24;;;;;;;28.10;17.80;;;;;;;;;;4969011;28;20292;-84
2021/12/22 17:20:51;;;;;;;25.80;16.87;;;;;;;;;;4965404;28;20212;-87
2021/12/22 17:23:24;;;;;;;25.03;17.63;;;;;;;;;;4960788;28;20212;-87
2021/12/22 17:25:57;;;;;;;25.60;17.97;;;;;;;;;;4957920;28;20236;-86
2021/12/22 17:28:27;;;;;;;25.93;17.10;;;;;;;;;;4963206;28;20200;-87
2021/12/22 17:31:04;;;;;;;25.73;17.77;;;;;;;;;;5026131;28;20213;-86
2021/12/22 17:33:53;;;;;;;28.60;19.47;;;;;;;;;;5043975;28;20205;-86
2021/12/22 17:36:28;;;;;;;26.40;18.20;;;;;;;;;;5044431;28;20234;-86
2021/12/22 17:39:06;;;;;;;26.13;18.43;;;;;;;;;;5043205;28;20237;-87
2021/12/22 17:41:39;;;;;;;30.70;19.80;;;;;;;;;;5043624;28;20229;-87
2021/12/22 17:44:26;;;;;;;28.63;19.53;;;;;;;;;;5043755;28;20220;-86
2021/12/22 17:47:12;;;;;;;;;;;;;;;;;;;;;
2021/12/22 17:49:53;;;;;;;29.00;19.13;;;;;;;;;;5047385;28;20301;-87
2021/12/22 17:52:29;;;;;;;31.23;19.63;;;;;;;;;;5046748;28;20251;-87
2021/12/22 17:57:43;;;;;;;27.87;19.40;;;;;;;;;;5007012;28;20234;-83
2021/12/22 18:00:11;;;;;;;29.00;20.40;;;;;;;;;;5021106;28;20237;-84
2021/12/22 18:02:39;;;;;;;32.37;20.33;;;;;;;;;;5009211;28;20211;-84
2021/12/22 18:05:07;;;;;;;27.97;19.00;;;;;;;;;;5009192;28;20206;-81
2021/12/22 18:07:35;;;;;;;32.33;20.13;;;;;;;;;;4996380;28;20199;-82
2021/12/22 18:10:03;;;;;;;29.63;19.17;;;;;;;;;;4982641;28;20212;-84
2021/12/22 18:12:30;;;;;;;30.77;20.33;;;;;;;;;;4980787;28;20215;-83
2021/12/22 18:14:57;;;;;;;31.07;19.10;;;;;;;;;;4980550;28;20212;-83
2021/12/22 18:17:25;;;;;;;31.37;19.43;;;;;;;;;;4974275;28;20319;-83
2021/12/22 18:19:52;;;;;;;31.47;19.33;;;;;;;;;;4994062;28;20195;-87
2021/12/22 18:22:19;;;;;;;30.77;19.30;;;;;;;;;;5015306;28;20192;-88
2021/12/22 18:24:48;;;;;;;31.63;20.13;;;;;;;;;;5019328;28;20230;-88
2021/12/22 18:27:16;;;;;;;33.17;20.03;;;;;;;;;;5004304;28;20211;-87
2021/12/22 18:29:43;;;;;;;31.80;19.13;;;;;;;;;;4998403;28;20217;-84
2021/12/22 18:32:10;;;;;;;30.37;18.87;;;;;;;;;;4989639;28;20200;-84
2021/12/22 18:34:38;;;;;;;30.93;20.70;;;;;;;;;;4989229;28;20261;-86
2021/12/22 18:37:15;;;;;;;29.17;18.90;;;;;;;;;;4993779;28;20694;-84
2021/12/22 18:39:47;;;;;;;29.40;19.57;;;;;;;;;;4985971;28;20196;-84
2021/12/22 18:42:16;;;;;;;33.83;20.70;;;;;;;;;;4984930;28;20219;-84
2021/12/22 18:44:43;;;;;;;29.27;19.17;;;;;;;;;;4987806;28;20246;-83
2021/12/22 18:47:11;;;;;;;28.90;18.97;;;;;;;;;;4989335;28;20261;-84
2021/12/22 18:49:39;;;;;;;29.43;19.23;;;;;;;;;;4978503;28;20309;-82
2021/12/22 18:52:07;;;;;;;30.40;20.37;;;;;;;;;;4988754;28;20211;-82
2021/12/22 18:54:35;;;;;;;29.90;20.03;;;;;;;;;;4983592;28;20275;-81
2021/12/22 18:57:02;;;;;;;31.70;19.70;;;;;;;;;;5005556;28;20306;-84
2021/12/22 18:59:31;;;;;;;32.30;19.90;;;;;;;;;;5020471;28;20249;-82
2021/12/22 19:01:58;;;;;;;33.20;20.60;;;;;;;;;;5024152;28;20220;-84
2021/12/22 19:04:25;;;;;;;29.87;19.63;;;;;;;;;;5041634;28;20231;-80
2021/12/22 19:06:56;;;;;;;32.10;19.87;;;;;;;;;;5039850;28;20756;-82
2021/12/22 19:09:25;;;;;;;30.63;19.50;;;;;;;;;;5031847;28;20203;-83
2021/12/22 19:11:54;;;;;;;35.40;20.33;;;;;;;;;;5029360;28;20209;-83
2021/12/22 19:14:21;;;;;;;29.90;20.37;;;;;;;;;;5032389;28;20205;-83
2021/12/22 19:16:50;;;;;;;31.87;20.77;;;;;;;;;;5034112;28;20234;-83
2021/12/22 19:19:32;;;;;;;31.87;19.73;;;;;;;;;;5035447;28;20292;-86
2021/12/22 19:21:59;;;;;;;31.03;19.80;;;;;;;;;;5030974;28;20202;-83
2021/12/22 19:24:26;;;;;;;31.13;20.07;;;;;;;;;;5032407;28;20256;-83
2021/12/22 19:26:54;;;;;;;31.13;19.87;;;;;;;;;;5032281;28;20222;-83
2021/12/22 19:29:21;;;;;;;32.90;20.57;;;;;;;;;;5042235;28;20206;-83
2021/12/22 19:31:50;;;;;;;32.77;21.17;;;;;;;;;;5036036;28;20317;-80
2021/12/22 19:34:17;;;;;;;30.73;20.40;;;;;;;;;;5038609;28;20210;-81
2021/12/22 19:36:44;;;;;;;30.87;19.87;;;;;;;;;;5028708;28;20381;-84
2021/12/22 19:39:12;;;;;;;31.53;19.37;;;;;;;;;;5041866;28;20284;-82
2021/12/22 19:41:39;;;;;;;30.70;19.40;;;;;;;;;;5037678;28;20202;-84
2021/12/22 19:44:07;;;;;;;31.97;20.17;;;;;;;;;;5032969;28;20649;-83
2021/12/22 19:46:34;;;;;;;29.43;19.40;;;;;;;;;;5041453;28;20276;-81
2021/12/22 19:49:06;;;;;;;33.53;20.23;;;;;;;;;;5042279;28;20190;-83
2021/12/22 19:51:33;;;;;;;32.40;20.23;;;;;;;;;;5037355;28;20198;-84
2021/12/22 19:54:00;;;;;;;29.43;20.00;;;;;;;;;;5043213;28;20202;-83
2021/12/22 19:56:28;;;;;;;30.13;19.47;;;;;;;;;;5036788;28;20715;-84
2021/12/22 19:58:55;;;;;;;31.57;19.53;;;;;;;;;;5036136;28;20226;-83
2021/12/22 20:01:23;;;;;;;31.67;19.80;;;;;;;;;;5033639;28;20233;-82
2021/12/22 20:03:50;;;;;;;34.93;20.93;;;;;;;;;;5023671;28;20198;-82
2021/12/22 20:06:19;;;;;;;28.63;19.40;;;;;;;;;;5021145;28;20247;-83
2021/12/22 20:08:47;;;;;;;28.37;18.60;;;;;;;;;;5037919;28;20231;-81
2021/12/22 20:11:14;;;;;;;33.07;20.30;;;;;;;;;;5039706;28;20206;-82
2021/12/22 20:13:43;;;;;;;32.00;20.30;;;;;;;;;;5049377;28;20228;-85
2021/12/22 20:16:11;;;;;;;31.27;20.00;;;;;;;;;;5046018;28;20249;-83
2021/12/22 20:18:38;;;;;;;28.93;19.43;;;;;;;;;;5044523;28;20244;-83
2021/12/22 20:21:06;;;;;;;30.77;19.67;;;;;;;;;;5040852;28;20240;-83
2021/12/22 20:23:35;;;;;;;28.73;18.10;;;;;;;;;;5037517;28;20213;-83
2021/12/22 20:26:02;;;;;;;33.77;19.93;;;;;;;;;;5035109;28;20297;-82
2021/12/22 20:28:29;;;;;;;31.73;20.63;;;;;;;;;;5037720;28;20217;-83
2021/12/22 20:30:57;;;;;;;27.67;18.47;;;;;;;;;;5030669;28;20214;-83
2021/12/22 20:33:24;;;;;;;30.97;19.67;;;;;;;;;;5033924;28;20203;-85
2021/12/22 20:35:51;;;;;;;28.93;18.53;;;;;;;;;;5045554;28;20245;-84
2021/12/22 20:38:19;;;;;;;32.87;19.97;;;;;;;;;;5043382;28;20230;-84
2021/12/22 20:40:48;;;;;;;32.33;19.23;;;;;;;;;;5028789;28;20210;-83
2021/12/22 20:43:16;;;;;;;28.73;19.33;;;;;;;;;;5031446;28;20209;-83
2021/12/22 20:45:49;;;;;;;29.57;18.87;;;;;;;;;;5026538;28;20249;-82
2021/12/22 20:48:16;;;;;;;29.40;20.17;;;;;;;;;;5034919;28;20273;-82
2021/12/22 20:50:43;;;;;;;31.97;20.00;;;;;;;;;;5038914;28;20202;-82
2021/12/22 20:53:11;;;;;;;31.47;18.70;;;;;;;;;;5031608;28;20226;-82
2021/12/22 20:55:41;;;;;;;31.50;20.13;;;;;;;;;;5037243;28;20261;-87
2021/12/22 20:58:11;;;;;;;33.13;20.80;;;;;;;;;;5029625;28;20206;-83
2021/12/22 21:00:41;;;;;;;31.03;18.77;;;;;;;;;;5043823;28;20208;-86
2021/12/22 21:03:09;;;;;;;31.57;20.23;;;;;;;;;;5031258;28;20197;-86
2021/12/22 21:05:38;;;;;;;33.73;20.63;;;;;;;;;;5030293;28;20217;-87
2021/12/22 21:08:05;;;;;;;31.77;19.60;;;;;;;;;;5016524;28;20213;-85
2021/12/22 21:11:00;;;;;;;25.93;18.63;;;;;;;;;;5031708;28;20269;-81
2021/12/22 21:13:32;;;;;;;33.23;19.53;;;;;;;;;;5029814;28;20201;-83
2021/12/22 21:16:00;;;;;;;30.50;18.57;;;;;;;;;;5031483;28;20240;-84
2021/12/22 21:18:28;;;;;;;32.40;18.87;;;;;;;;;;5028034;28;20214;-84
2021/12/22 21:20:55;;;;;;;30.33;19.97;;;;;;;;;;5024807;28;20257;-84
2021/12/22 21:23:22;;;;;;;33.63;20.37;;;;;;;;;;5027032;28;20236;-85
2021/12/22 21:25:50;;;;;;;32.13;20.00;;;;;;;;;;5031839;28;20338;-84
2021/12/22 21:28:17;;;;;;;29.90;18.70;;;;;;;;;;5037059;28;20239;-83
2021/12/22 21:30:46;;;;;;;30.20;19.13;;;;;;;;;;5029984;28;20222;-84
2021/12/22 21:33:13;;;;;;;30.77;19.93;;;;;;;;;;5031972;28;20233;-84
2021/12/22 21:35:42;;;;;;;29.53;18.63;;;;;;;;;;5035488;28;20233;-85
2021/12/22 21:38:10;;;;;;;30.67;18.93;;;;;;;;;;5034236;28;20202;-83
2021/12/22 21:40:38;;;;;;;31.67;20.10;;;;;;;;;;5036648;28;20197;-83
2021/12/22 21:43:05;;;;;;;29.90;18.73;;;;;;;;;;5054896;28;20200;-87
2021/12/22 21:45:33;;;;;;;32.10;19.10;;;;;;;;;;5047440;28;20224;-89
2021/12/22 21:48:02;;;;;;;30.93;19.60;;;;;;;;;;5050242;28;20209;-87
2021/12/22 21:50:31;;;;;;;29.50;18.93;;;;;;;;;;5048850;28;20194;-83
2021/12/22 21:53:00;;;;;;;32.13;19.53;;;;;;;;;;5036134;28;20205;-83
2021/12/22 21:55:28;;;;;;;32.60;20.47;;;;;;;;;;5033023;28;20206;-84
2021/12/22 21:57:55;;;;;;;27.63;18.83;;;;;;;;;;5032378;28;20213;-84
2021/12/22 22:00:23;;;;;;;35.50;20.93;;;;;;;;;;5034549;28;20276;-84
2021/12/22 22:02:50;;;;;;;33.43;18.57;;;;;;;;;;5032195;28;20194;-84
2021/12/22 22:05:20;;;;;;;35.43;20.77;;;;;;;;;;5028252;28;20198;-84
2021/12/22 22:07:49;;;;;;;32.47;19.17;;;;;;;;;;5033697;28;20299;-83
2021/12/22 22:10:18;;;;;;;34.00;19.87;;;;;;;;;;5032272;28;20226;-85
2021/12/22 22:12:45;;;;;;;33.87;19.50;;;;;;;;;;5027783;28;20222;-84
2021/12/22 22:15:14;;;;;;;33.27;19.80;;;;;;;;;;5029843;28;20206;-84
2021/12/22 22:17:41;;;;;;;34.80;20.63;;;;;;;;;;5029084;28;20277;-84
2021/12/22 22:20:09;;;;;;;35.33;20.23;;;;;;;;;;5029229;28;20253;-84
2021/12/22 22:22:38;;;;;;;35.13;20.13;;;;;;;;;;5024416;28;20301;-85
2021/12/22 22:25:06;;;;;;;33.13;19.60;;;;;;;;;;5027717;28;20195;-84
2021/12/22 22:27:33;;;;;;;36.43;20.33;;;;;;;;;;5028728;28;20215;-84
2021/12/22 22:30:00;;;;;;;35.27;20.07;;;;;;;;;;5034385;28;20229;-84
2021/12/22 22:32:28;;;;;;;33.63;19.67;;;;;;;;;;5029920;28;20237;-84
2021/12/22 22:34:55;;;;;;;33.17;20.37;;;;;;;;;;5034061;28;20213;-85
2021/12/22 22:37:22;;;;;;;35.60;20.60;;;;;;;;;;5036527;28;20284;-83
2021/12/22 22:39:51;;;;;;;35.00;20.70;;;;;;;;;;5035505;28;20286;-84